createdAt,value
2022-12-09T00:00:28.660Z,9.50
2022-12-09T00:02:55.342Z,8.00
2022-12-09T00:05:22.127Z,7.75
2022-12-09T00:07:48.715Z,9.00
2022-12-09T00:10:15.363Z,12.00
2022-12-09T00:12:45.945Z,9.20
2022-12-09T00:15:12.490Z,5.80
2022-12-09T00:17:38.964Z,6.00
2022-12-09T00:20:06.392Z,8.40
2022-12-09T00:22:33.243Z,14.40
2022-12-09T00:24:59.860Z,7.80
2022-12-09T00:27:26.783Z,9.00
2022-12-09T00:29:53.288Z,7.00
2022-12-09T00:32:19.871Z,9.00
2022-12-09T00:34:48.096Z,6.00
2022-12-09T00:37:14.564Z,7.00
2022-12-09T00:39:41.141Z,7.20
2022-12-09T00:42:07.567Z,7.00
2022-12-09T00:44:34.074Z,6.50
2022-12-09T00:47:00.786Z,10.00
2022-12-09T00:49:27.471Z,9.60
2022-12-09T00:51:54.224Z,5.40
2022-12-09T00:54:21.107Z,7.00
2022-12-09T00:56:47.675Z,6.00
2022-12-09T00:59:14.326Z,7.00
2022-12-09T01:01:40.845Z,13.00
2022-12-09T01:04:08.900Z,11.00
2022-12-09T01:06:35.784Z,12.00
2022-12-09T01:09:03.492Z,15.80
2022-12-09T01:11:30.688Z,14.40
2022-12-09T01:14:01.525Z,15.00
2022-12-09T01:16:30.332Z,15.20
2022-12-09T01:18:59.517Z,12.00
2022-12-09T01:21:26.851Z,14.40
2022-12-09T01:23:53.647Z,13.20
2022-12-09T01:26:20.123Z,13.60
2022-12-09T01:28:47.134Z,7.80
2022-12-09T01:31:18.701Z,11.80
2022-12-09T01:33:45.589Z,9.00
2022-12-09T01:36:15.088Z,13.20
2022-12-09T01:38:41.825Z,13.40
2022-12-09T01:41:08.332Z,15.25
2022-12-09T01:43:35.040Z,8.00
2022-12-09T01:46:01.630Z,14.25
2022-12-09T01:48:30.371Z,10.00
2022-12-09T01:51:00.754Z,9.60
2022-12-09T01:53:32.862Z,19.75
2022-12-09T01:56:02.040Z,13.60
2022-12-09T01:58:29.783Z,7.60
2022-12-09T02:00:56.447Z,11.80
2022-12-09T02:03:23.207Z,9.80
2022-12-09T02:05:49.961Z,14.80
2022-12-09T02:08:17.485Z,15.67
2022-12-09T02:10:46.957Z,17.00
2022-12-09T02:13:46.135Z,24.00
2022-12-09T02:16:15.557Z,12.00
2022-12-09T02:18:48.393Z,12.00
2022-12-09T02:21:14.942Z,13.60
2022-12-09T02:23:53.576Z,12.75
2022-12-09T02:26:20.159Z,12.00
2022-12-09T02:29:01.110Z,12.50
2022-12-09T02:31:39.908Z,11.60
2022-12-09T02:34:06.697Z,13.20
2022-12-09T02:36:51.710Z,10.80
2022-12-09T02:39:21.921Z,13.00
2022-12-09T02:41:49.576Z,11.50
2022-12-09T02:44:19.396Z,9.00
2022-12-09T02:46:46.426Z,9.00
2022-12-09T02:49:14.675Z,10.00
2022-12-09T02:51:42.631Z,8.50
2022-12-09T02:54:11.500Z,13.20
2022-12-09T02:56:40.680Z,7.00
2022-12-09T02:59:07.232Z,6.00
2022-12-09T03:01:42.904Z,7.75
2022-12-09T03:04:11.493Z,12.00
2022-12-09T03:06:46.820Z,5.80
2022-12-09T03:09:19.657Z,8.50
2022-12-09T03:11:47.763Z,14.00
2022-12-09T03:14:17.688Z,7.25
2022-12-09T03:16:57.277Z,9.00
2022-12-09T03:19:23.894Z,8.50
2022-12-09T03:21:53.621Z,10.00
2022-12-09T03:24:26.280Z,14.80
2022-12-09T03:26:53.844Z,11.00
2022-12-09T03:29:23.313Z,13.40
2022-12-09T03:31:51.183Z,10.00
2022-12-09T03:34:20.005Z,8.00
2022-12-09T03:36:48.605Z,11.80
2022-12-09T03:39:17.258Z,14.80
2022-12-09T03:41:45.843Z,12.00
2022-12-09T03:44:22.010Z,8.60
2022-12-09T03:46:49.126Z,9.00
2022-12-09T03:49:15.964Z,7.80
2022-12-09T03:51:42.621Z,6.60
2022-12-09T03:54:09.331Z,7.75
2022-12-09T03:56:39.392Z,9.00
2022-12-09T03:59:10.156Z,10.40
2022-12-09T04:01:37.053Z,14.00
2022-12-09T04:04:03.741Z,10.00
2022-12-09T04:06:30.580Z,6.80
2022-12-09T04:09:02.136Z,7.00
2022-12-09T04:11:29.625Z,15.25
2022-12-09T04:13:56.399Z,11.50
2022-12-09T04:16:22.981Z,8.50
2022-12-09T04:18:49.850Z,7.75
2022-12-09T04:21:16.337Z,9.80
2022-12-09T04:23:43.584Z,12.00
2022-12-09T04:26:14.074Z,14.00
2022-12-09T04:28:40.615Z,15.00
2022-12-09T04:31:10.673Z,11.00
2022-12-09T04:33:37.545Z,14.25
2022-12-09T04:36:08.717Z,10.00
2022-12-09T04:38:35.433Z,13.40
2022-12-09T04:41:02.701Z,7.40
2022-12-09T04:43:29.818Z,11.80
2022-12-09T04:46:00.645Z,7.50
2022-12-09T04:48:27.983Z,16.00
2022-12-09T04:50:55.003Z,11.00
2022-12-09T04:53:21.518Z,15.00
2022-12-09T04:55:48.373Z,13.50
2022-12-09T04:58:14.887Z,12.00
2022-12-09T05:00:41.494Z,9.40
2022-12-09T05:03:08.164Z,15.00
2022-12-09T05:05:34.942Z,9.00
2022-12-09T05:08:01.680Z,13.60
2022-12-09T05:10:28.741Z,9.80
2022-12-09T05:12:55.613Z,12.75
2022-12-09T05:15:22.296Z,11.75
2022-12-09T05:17:49.143Z,11.75
2022-12-09T05:20:16.005Z,15.33
2022-12-09T05:22:42.918Z,8.00
2022-12-09T05:25:10.419Z,15.40
2022-12-09T05:27:37.199Z,7.25
2022-12-09T05:30:04.277Z,12.00
2022-12-09T05:32:31.005Z,10.00
2022-12-09T05:34:57.991Z,15.60
2022-12-09T05:37:24.666Z,9.50
2022-12-09T05:39:51.411Z,10.60
2022-12-09T05:42:18.354Z,11.40
2022-12-09T05:44:44.969Z,9.00
2022-12-09T05:47:11.547Z,12.75
2022-12-09T05:49:39.230Z,12.20
2022-12-09T05:52:06.297Z,11.20
2022-12-09T05:54:33.159Z,9.50
2022-12-09T05:57:01.444Z,13.60
2022-12-09T05:59:28.174Z,10.60
2022-12-09T06:01:55.081Z,17.80
2022-12-09T06:04:22.180Z,13.50
2022-12-09T06:06:48.981Z,12.40
2022-12-09T06:09:16.061Z,14.25
2022-12-09T06:11:43.062Z,14.50
2022-12-09T06:14:11.274Z,8.50
2022-12-09T06:16:38.470Z,15.33
2022-12-09T06:19:05.935Z,11.00
2022-12-09T06:21:33.006Z,11.00
2022-12-09T06:23:59.916Z,9.80
2022-12-09T06:26:28.425Z,22.00
2022-12-09T06:28:55.631Z,11.25
2022-12-09T06:31:22.415Z,16.00
2022-12-09T06:33:58.076Z,13.00
2022-12-09T06:36:26.376Z,12.50
2022-12-09T06:38:53.545Z,12.00
2022-12-09T06:41:20.594Z,15.80
2022-12-09T06:43:47.530Z,14.60
2022-12-09T06:46:19.019Z,24.00
2022-12-09T06:48:46.899Z,18.75
2022-12-09T06:51:13.678Z,18.50
2022-12-09T06:53:40.876Z,25.20
2022-12-09T06:56:12.141Z,26.20
2022-12-09T06:58:40.588Z,22.00
2022-12-09T07:01:13.842Z,15.00
2022-12-09T07:03:41.792Z,23.00
2022-12-09T07:06:16.728Z,25.00
2022-12-09T07:08:44.165Z,40.25
2022-12-09T07:11:11.049Z,34.40
2022-12-09T07:13:38.096Z,26.40
2022-12-09T07:16:05.313Z,26.00
2022-12-09T07:18:32.196Z,20.60
2022-12-09T07:20:59.206Z,18.50
2022-12-09T07:23:26.020Z,16.75
2022-12-09T07:25:58.620Z,15.60
2022-12-09T07:28:25.566Z,18.25
2022-12-09T07:30:52.504Z,23.60
2022-12-09T07:33:19.044Z,16.00
2022-12-09T07:35:45.992Z,16.00
2022-12-09T07:38:12.706Z,22.75
2022-12-09T07:40:40.609Z,14.00
2022-12-09T07:43:07.707Z,20.40
2022-12-09T07:45:34.912Z,20.20
2022-12-09T07:48:01.725Z,20.00
2022-12-09T07:50:28.446Z,18.20
2022-12-09T07:52:55.483Z,13.60
2022-12-09T07:55:22.260Z,16.00
2022-12-09T07:57:49.101Z,16.25
2022-12-09T08:00:18.905Z,19.25
2022-12-09T08:02:45.525Z,22.25
2022-12-09T08:05:12.396Z,12.40
2022-12-09T08:07:44.296Z,19.00
2022-12-09T08:10:11.522Z,15.00
2022-12-09T08:12:38.258Z,20.20
2022-12-09T08:15:05.466Z,13.00
2022-12-09T08:17:33.508Z,19.00
2022-12-09T08:20:00.361Z,20.40
2022-12-09T08:22:27.015Z,13.60
2022-12-09T08:24:53.795Z,26.75
2022-12-09T08:27:20.616Z,42.00
2022-12-09T08:29:47.494Z,60.00
2022-12-09T08:32:16.455Z,43.75
2022-12-09T08:34:43.491Z,45.40
2022-12-09T08:37:10.385Z,49.25
2022-12-09T08:39:36.921Z,18.00
2022-12-09T08:42:03.728Z,20.00
2022-12-09T08:44:30.529Z,23.00
2022-12-09T08:46:57.285Z,23.00
2022-12-09T08:49:25.157Z,25.00
2022-12-09T08:51:53.448Z,20.00
2022-12-09T08:54:20.857Z,21.25
2022-12-09T08:56:48.705Z,21.50
2022-12-09T08:59:16.184Z,19.00
2022-12-09T09:01:43.044Z,21.40
2022-12-09T09:04:12.307Z,12.50
2022-12-09T09:06:40.332Z,18.60
2022-12-09T09:09:10.074Z,20.25
2022-12-09T09:11:37.543Z,41.20
2022-12-09T09:14:05.630Z,30.00
2022-12-09T09:16:32.365Z,27.60
2022-12-09T09:18:59.296Z,23.67
2022-12-09T09:21:29.207Z,51.60
2022-12-09T09:23:56.332Z,27.50
2022-12-09T09:26:24.725Z,17.80
2022-12-09T09:28:51.731Z,14.20
2022-12-09T09:31:20.449Z,16.00
2022-12-09T09:33:47.924Z,24.00
2022-12-09T09:36:16.299Z,21.75
2022-12-09T09:38:43.246Z,44.00
2022-12-09T09:41:28.626Z,31.00
2022-12-09T09:43:56.615Z,23.25
2022-12-09T09:46:31.790Z,16.00
2022-12-09T09:48:59.081Z,17.75
2022-12-09T09:51:26.681Z,19.50
2022-12-09T09:53:54.067Z,17.00
2022-12-09T09:56:28.507Z,27.00
2022-12-09T09:59:00.605Z,31.60
2022-12-09T10:01:31.600Z,79.00
2022-12-09T10:04:03.061Z,39.20
2022-12-09T10:06:33.207Z,17.00
2022-12-09T10:09:23.897Z,38.25
2022-12-09T10:12:09.707Z,30.25
2022-12-09T10:14:40.013Z,33.80
2022-12-09T10:17:06.894Z,37.40
2022-12-09T10:19:36.232Z,31.25
2022-12-09T10:22:11.886Z,26.50
2022-12-09T10:24:43.150Z,23.00
2022-12-09T10:27:18.619Z,23.00
2022-12-09T10:29:45.214Z,27.80
2022-12-09T10:32:17.065Z,25.50
2022-12-09T10:34:44.225Z,17.75
2022-12-09T10:37:21.001Z,19.75
2022-12-09T10:39:47.891Z,21.40
2022-12-09T10:42:35.212Z,31.25
2022-12-09T10:45:06.942Z,15.00
2022-12-09T10:47:34.086Z,47.50
2022-12-09T10:50:01.172Z,43.50
2022-12-09T10:52:29.707Z,27.00
2022-12-09T10:54:56.657Z,26.60
2022-12-09T10:57:27.618Z,30.40
2022-12-09T10:59:59.397Z,30.25
2022-12-09T11:02:26.550Z,36.75
2022-12-09T11:04:54.547Z,46.00
2022-12-09T11:07:23.215Z,51.80
2022-12-09T11:09:56.467Z,84.20
2022-12-09T11:12:33.351Z,57.00
2022-12-09T11:15:05.932Z,57.00
2022-12-09T11:17:35.729Z,33.00
2022-12-09T11:20:05.696Z,40.60
2022-12-09T11:22:39.613Z,50.60
2022-12-09T11:25:12.919Z,29.25
2022-12-09T11:27:42.080Z,25.40
2022-12-09T11:30:13.164Z,15.75
2022-12-09T11:32:59.816Z,10.80
2022-12-09T11:35:30.314Z,10.00
2022-12-09T11:37:59.040Z,46.25
2022-12-09T11:40:27.579Z,49.25
2022-12-09T11:42:55.020Z,12.00
2022-12-09T11:45:33.660Z,21.00
2022-12-09T11:50:52.017Z,25.00
2022-12-09T11:53:29.419Z,19.50
2022-12-09T11:56:16.904Z,35.50
2022-12-09T11:59:04.065Z,37.00
2022-12-09T12:01:42.803Z,55.20
2022-12-09T12:04:10.370Z,36.25
2022-12-09T12:06:50.889Z,29.00
2022-12-09T12:09:21.433Z,18.00
2022-12-09T12:12:06.524Z,27.00
2022-12-09T12:14:35.720Z,20.00
2022-12-09T12:17:07.369Z,19.40
2022-12-09T12:19:35.421Z,17.40
2022-12-09T12:22:20.573Z,43.60
2022-12-09T12:25:02.305Z,49.40
2022-12-09T12:27:46.942Z,42.00
2022-12-09T12:30:14.705Z,45.00
2022-12-09T12:33:52.980Z,35.60
2022-12-09T12:36:03.057Z,29.75
2022-12-09T12:38:43.635Z,32.40
2022-12-09T12:41:19.266Z,31.50
2022-12-09T12:44:10.451Z,26.00
2022-12-09T12:46:59.956Z,27.80
2022-12-09T12:49:46.167Z,28.60
2022-12-09T12:52:53.787Z,29.40
2022-12-09T12:55:12.237Z,31.75
2022-12-09T12:57:44.809Z,34.50
2022-12-09T13:00:14.381Z,46.25
2022-12-09T13:02:43.559Z,41.40
2022-12-09T13:05:13.224Z,28.00
2022-12-09T13:07:42.647Z,30.50
2022-12-09T13:10:18.071Z,48.00
2022-12-09T13:12:55.038Z,32.00
2022-12-09T13:15:24.045Z,45.80
2022-12-09T13:17:50.797Z,36.80
2022-12-09T13:20:31.269Z,23.40
2022-12-09T13:23:06.207Z,31.60
2022-12-09T13:25:46.755Z,22.00
2022-12-09T13:28:18.122Z,41.25
2022-12-09T13:30:54.320Z,15.80
2022-12-09T13:33:31.020Z,12.00
2022-12-09T13:36:12.834Z,16.80
2022-12-09T13:38:42.319Z,15.60
2022-12-09T13:41:27.338Z,20.00
2022-12-09T13:43:57.608Z,13.75
2022-12-09T13:46:25.468Z,12.50
2022-12-09T13:48:53.101Z,12.00
2022-12-09T13:51:20.693Z,11.00
2022-12-09T13:53:49.988Z,19.00
2022-12-09T13:56:16.416Z,14.20
2022-12-09T13:58:42.853Z,11.20
2022-12-09T14:01:12.309Z,46.50
2022-12-09T14:03:57.521Z,36.00
2022-12-09T14:06:23.968Z,48.00
2022-12-09T14:08:53.395Z,37.25
2022-12-09T14:11:38.094Z,56.25
2022-12-09T14:14:23.095Z,63.40
2022-12-09T14:16:56.523Z,57.75
2022-12-09T14:19:25.762Z,22.20
2022-12-09T14:22:17.745Z,40.67
2022-12-09T14:24:44.780Z,36.00
2022-12-09T14:27:15.665Z,28.40
2022-12-09T14:29:53.257Z,28.20
2022-12-09T14:32:20.712Z,15.00
2022-12-09T14:34:48.368Z,29.25
2022-12-09T14:37:33.840Z,15.00
2022-12-09T14:40:17.939Z,16.75
2022-12-09T14:42:52.383Z,8.60
2022-12-09T14:45:39.032Z,7.00
2022-12-09T14:48:10.734Z,8.00
2022-12-09T14:50:38.796Z,11.00
2022-12-09T14:53:10.990Z,5.60
2022-12-09T14:55:40.363Z,8.00
2022-12-09T14:58:06.846Z,9.20
2022-12-09T15:00:35.640Z,11.25
2022-12-09T15:03:31.305Z,9.50
2022-12-09T15:05:55.909Z,10.60
2022-12-09T15:08:29.429Z,8.60
2022-12-09T15:10:55.893Z,30.25
2022-12-09T15:13:23.515Z,22.75
2022-12-09T15:15:50.112Z,15.00
2022-12-09T15:18:25.710Z,13.40
2022-12-09T15:20:56.738Z,31.75
2022-12-09T15:23:32.398Z,21.40
2022-12-09T15:26:00.213Z,12.25
2022-12-09T15:28:31.088Z,15.50
2022-12-09T15:30:59.959Z,13.00
2022-12-09T15:33:27.354Z,18.40
2022-12-09T15:36:00.003Z,72.25
2022-12-09T15:38:28.608Z,77.75
2022-12-09T15:41:15.440Z,23.40
2022-12-09T15:43:42.885Z,39.20
2022-12-09T15:46:09.739Z,49.50
2022-12-09T15:48:40.780Z,53.60
2022-12-09T15:51:13.492Z,82.60
2022-12-09T15:53:43.246Z,56.50
2022-12-09T15:56:27.056Z,12.40
2022-12-09T15:58:56.866Z,17.40
2022-12-09T16:01:34.115Z,56.50
2022-12-09T16:04:01.566Z,61.25
2022-12-09T16:06:29.785Z,60.00
2022-12-09T16:08:56.294Z,93.25
2022-12-09T16:11:42.812Z,60.75
2022-12-09T16:14:09.715Z,45.00
2022-12-09T16:16:42.315Z,40.60
2022-12-09T16:19:27.330Z,40.00
2022-12-09T16:21:55.369Z,67.80
2022-12-09T16:24:21.994Z,57.00
2022-12-09T16:26:49.729Z,56.75
2022-12-09T16:29:22.308Z,62.75
2022-12-09T16:32:06.788Z,40.60
2022-12-09T16:34:33.463Z,42.40
2022-12-09T16:37:01.369Z,20.00
2022-12-09T16:39:34.208Z,25.40
2022-12-09T16:42:01.640Z,22.00
2022-12-09T16:44:30.842Z,18.50
2022-12-09T16:47:03.466Z,60.20
2022-12-09T16:49:29.940Z,73.50
2022-12-09T16:51:56.701Z,63.75
2022-12-09T16:54:23.612Z,91.50
2022-12-09T16:56:51.410Z,52.00
2022-12-09T16:59:17.904Z,33.60
2022-12-09T17:01:44.655Z,50.00
2022-12-09T17:04:11.136Z,43.50
2022-12-09T17:06:37.577Z,44.00
2022-12-09T17:09:04.060Z,31.00
2022-12-09T17:11:30.510Z,28.00
2022-12-09T17:13:57.029Z,33.50
2022-12-09T17:16:25.844Z,39.00
2022-12-09T17:18:52.634Z,73.25
2022-12-09T17:21:19.537Z,67.00
2022-12-09T17:23:46.654Z,57.67
2022-12-09T17:26:14.522Z,58.40
2022-12-09T17:28:41.574Z,48.00
2022-12-09T17:31:09.104Z,48.20
2022-12-09T17:33:35.655Z,50.00
2022-12-09T17:36:02.118Z,39.00
2022-12-09T17:38:31.851Z,54.75
2022-12-09T17:41:02.445Z,58.20
2022-12-09T17:43:28.856Z,37.00
2022-12-09T17:45:58.022Z,73.00
2022-12-09T17:48:24.680Z,49.20
2022-12-09T17:50:51.101Z,51.80
2022-12-09T17:53:17.581Z,54.25
2022-12-09T17:55:44.076Z,43.80
2022-12-09T17:58:10.561Z,54.75
2022-12-09T18:00:38.729Z,64.00
2022-12-09T18:03:05.214Z,76.25
2022-12-09T18:05:31.667Z,76.20
2022-12-09T18:07:58.216Z,63.00
2022-12-09T18:10:24.710Z,64.00
2022-12-09T18:12:51.238Z,53.00
2022-12-09T18:15:17.775Z,53.25
2022-12-09T18:17:44.577Z,66.00
2022-12-09T18:20:12.897Z,52.75
2022-12-09T18:22:39.898Z,52.60
2022-12-09T18:25:07.057Z,54.00
2022-12-09T18:27:33.511Z,42.50
2022-12-09T18:30:00.046Z,73.00
2022-12-09T18:32:30.175Z,62.00
2022-12-09T18:34:59.227Z,64.25
2022-12-09T18:37:26.674Z,58.25
2022-12-09T18:39:53.191Z,62.00
2022-12-09T18:42:19.649Z,81.40
2022-12-09T18:44:46.122Z,76.75
2022-12-09T18:47:12.670Z,74.50
2022-12-09T18:49:39.158Z,59.40
2022-12-09T18:52:05.697Z,58.00
2022-12-09T18:54:32.656Z,51.80
2022-12-09T18:57:01.843Z,61.60
2022-12-09T18:59:28.401Z,70.40
2022-12-09T19:01:55.021Z,51.50
2022-12-09T19:04:25.712Z,56.50
2022-12-09T19:06:53.547Z,56.00
2022-12-09T19:09:21.725Z,52.00
2022-12-09T19:11:48.960Z,50.00
2022-12-09T19:14:16.157Z,41.75
2022-12-09T19:16:43.268Z,41.25
2022-12-09T19:19:12.024Z,39.75
2022-12-09T19:21:39.016Z,56.50
2022-12-09T19:24:05.708Z,57.00
2022-12-09T19:26:34.446Z,50.75
2022-12-09T19:29:02.349Z,60.25
2022-12-09T19:31:30.254Z,56.00
2022-12-09T19:33:57.853Z,55.00
2022-12-09T19:36:25.061Z,49.00
2022-12-09T19:38:52.066Z,55.20
2022-12-09T19:41:18.692Z,42.20
2022-12-09T19:43:45.452Z,46.00
2022-12-09T19:46:12.834Z,46.60
2022-12-09T19:48:40.523Z,45.75
2022-12-09T19:51:08.237Z,47.00
2022-12-09T19:53:35.352Z,46.25
2022-12-09T19:56:02.307Z,37.60
2022-12-09T19:58:29.349Z,44.00
2022-12-09T20:00:56.082Z,46.00
2022-12-09T20:03:22.740Z,48.50
2022-12-09T20:05:52.981Z,48.25
2022-12-09T20:08:19.511Z,48.60
2022-12-09T20:10:46.807Z,45.75
2022-12-09T20:13:14.496Z,55.80
2022-12-09T20:15:42.105Z,56.50
2022-12-09T20:18:09.215Z,58.00
2022-12-09T20:20:36.411Z,54.50
2022-12-09T20:23:03.029Z,46.40
2022-12-09T20:25:29.674Z,47.60
2022-12-09T20:27:56.206Z,39.60
2022-12-09T20:30:22.741Z,36.60
2022-12-09T20:32:49.297Z,49.40
2022-12-09T20:35:16.282Z,49.00
2022-12-09T20:37:43.980Z,46.75
2022-12-09T20:40:10.779Z,46.20
2022-12-09T20:42:37.303Z,43.20
2022-12-09T20:45:04.827Z,44.00
2022-12-09T20:47:31.512Z,41.40
2022-12-09T20:49:57.975Z,42.60
2022-12-09T20:52:24.810Z,32.00
2022-12-09T20:54:51.797Z,39.00
2022-12-09T20:57:18.264Z,49.50
2022-12-09T20:59:44.669Z,49.00
2022-12-09T21:02:14.305Z,44.20
2022-12-09T21:04:40.769Z,42.75
2022-12-09T21:07:07.232Z,39.50
2022-12-09T21:09:33.944Z,40.60
2022-12-09T21:12:00.692Z,46.60
2022-12-09T21:14:32.612Z,35.50
2022-12-09T21:16:59.498Z,41.00
2022-12-09T21:19:30.042Z,46.00
2022-12-09T21:21:56.548Z,41.20
2022-12-09T21:24:24.277Z,36.60
2022-12-09T21:26:53.411Z,31.40
2022-12-09T21:29:20.315Z,30.60
2022-12-09T21:31:50.439Z,26.00
2022-12-09T21:34:17.710Z,23.50
2022-12-09T21:36:44.746Z,26.00
2022-12-09T21:39:15.002Z,32.25
2022-12-09T21:41:42.013Z,32.75
2022-12-09T21:44:09.736Z,27.00
2022-12-09T21:46:36.787Z,27.00
2022-12-09T21:49:04.806Z,28.00
2022-12-09T21:51:32.082Z,30.20
2022-12-09T21:53:58.539Z,30.00
2022-12-09T21:56:26.417Z,28.40
2022-12-09T21:58:54.951Z,34.25
2022-12-09T22:01:23.089Z,29.00
2022-12-09T22:03:50.041Z,33.00
2022-12-09T22:06:17.679Z,28.00
2022-12-09T22:08:44.257Z,31.20
2022-12-09T22:11:14.032Z,27.00
2022-12-09T22:13:40.846Z,25.75
2022-12-09T22:16:11.478Z,31.50
2022-12-09T22:18:38.354Z,28.20
2022-12-09T22:21:26.714Z,32.00
2022-12-09T22:23:54.866Z,32.00
2022-12-09T22:26:21.811Z,32.00
2022-12-09T22:28:48.486Z,30.00
2022-12-09T22:31:16.790Z,25.20
2022-12-09T22:33:43.727Z,25.75
2022-12-09T22:36:11.746Z,21.50
2022-12-09T22:38:39.183Z,24.75
2022-12-09T22:41:06.392Z,21.40
2022-12-09T22:43:37.907Z,24.25
2022-12-09T22:46:05.907Z,20.00
2022-12-09T22:48:32.659Z,19.80
2022-12-09T22:51:12.793Z,24.00
2022-12-09T22:53:39.849Z,23.00
2022-12-09T22:56:06.828Z,29.00
2022-12-09T22:58:33.935Z,21.20
2022-12-09T23:01:00.459Z,24.25
2022-12-09T23:03:26.979Z,25.80
2022-12-09T23:05:53.705Z,26.40
2022-12-09T23:08:20.337Z,27.00
2022-12-09T23:10:46.780Z,25.75
2022-12-09T23:13:13.251Z,34.00
2022-12-09T23:15:39.772Z,27.00
2022-12-09T23:18:06.300Z,24.60
2022-12-09T23:20:32.870Z,28.50
2022-12-09T23:22:59.763Z,23.00
2022-12-09T23:25:26.226Z,22.80
2022-12-09T23:27:52.696Z,23.20
2022-12-09T23:30:19.220Z,24.00
2022-12-09T23:32:45.701Z,23.00
2022-12-09T23:35:12.167Z,23.50
2022-12-09T23:37:38.779Z,24.80
2022-12-09T23:40:05.633Z,23.00
2022-12-09T23:42:32.216Z,23.25
2022-12-09T23:44:58.756Z,24.00
2022-12-09T23:47:25.186Z,26.25
2022-12-09T23:49:51.597Z,21.20
2022-12-09T23:52:18.257Z,23.75
2022-12-09T23:54:44.709Z,26.50
2022-12-09T23:57:11.127Z,26.40
2022-12-09T23:59:37.673Z,31.60
